Terminal Aerodrome Forecast
Issued by NWS Jackson, MS

Home | Current Version | Previous Version | Text Only | Print | Product List | Glossary On
Versions: 1 2 3 4 5 6 7 8 9 10 11 12 13 14 15 16
000
FTUS44 KJAN 211700
TAFMEI
TAF
KMEI 211727Z 2118/2218 02003KT P6SM OVC007
     FM212000 08004KT P6SM OVC025
     FM220000 VRB03KT P6SM OVC100
     FM220600 19003KT P6SM OVC015
     FM220900 18003KT P6SM OVC007=

USA.gov is the U.S. government's official web portal to all federal, state and local government web resources and services.